sensor_id;sensor_type;location;lat;lon;timestamp;P1;durP1;ratioP1;P2;durP2;ratioP2
7813;SDS011;3952;48.364;16.022;2022-10-31T00:00:17;11.00;;;10.03;;
7813;SDS011;3952;48.364;16.022;2022-10-31T00:02:46;10.90;;;9.90;;
7813;SDS011;3952;48.364;16.022;2022-10-31T00:05:13;10.17;;;9.40;;
7813;SDS011;3952;48.364;16.022;2022-10-31T00:07:41;10.07;;;9.07;;
7813;SDS011;3952;48.364;16.022;2022-10-31T00:10:08;10.53;;;9.73;;
7813;SDS011;3952;48.364;16.022;2022-10-31T00:12:35;10.20;;;9.33;;
7813;SDS011;3952;48.364;16.022;2022-10-31T00:15:03;10.23;;;9.43;;
7813;SDS011;3952;48.364;16.022;2022-10-31T00:17:30;9.43;;;8.73;;
7813;SDS011;3952;48.364;16.022;2022-10-31T00:20:02;9.70;;;8.80;;
7813;SDS011;3952;48.364;16.022;2022-10-31T00:22:30;10.40;;;9.50;;
7813;SDS011;3952;48.364;16.022;2022-10-31T00:24:57;11.27;;;10.47;;
7813;SDS011;3952;48.364;16.022;2022-10-31T00:27:24;11.27;;;10.17;;
7813;SDS011;3952;48.364;16.022;2022-10-31T00:29:51;11.37;;;10.30;;
7813;SDS011;3952;48.364;16.022;2022-10-31T00:32:18;12.03;;;10.90;;
7813;SDS011;3952;48.364;16.022;2022-10-31T00:34:46;12.23;;;11.10;;
7813;SDS011;3952;48.364;16.022;2022-10-31T00:37:14;11.93;;;10.83;;
7813;SDS011;3952;48.364;16.022;2022-10-31T00:39:41;11.30;;;10.20;;
7813;SDS011;3952;48.364;16.022;2022-10-31T00:42:10;11.33;;;10.23;;
7813;SDS011;3952;48.364;16.022;2022-10-31T00:44:37;12.10;;;11.10;;
7813;SDS011;3952;48.364;16.022;2022-10-31T00:47:04;11.60;;;10.70;;
7813;SDS011;3952;48.364;16.022;2022-10-31T00:49:31;12.70;;;11.50;;
7813;SDS011;3952;48.364;16.022;2022-10-31T00:51:59;11.47;;;10.50;;
7813;SDS011;3952;48.364;16.022;2022-10-31T00:54:27;12.13;;;10.77;;
7813;SDS011;3952;48.364;16.022;2022-10-31T00:56:56;12.93;;;11.70;;
7813;SDS011;3952;48.364;16.022;2022-10-31T00:59:23;11.80;;;10.50;;
7813;SDS011;3952;48.364;16.022;2022-10-31T01:01:50;12.77;;;11.47;;
7813;SDS011;3952;48.364;16.022;2022-10-31T01:04:17;12.83;;;11.47;;
7813;SDS011;3952;48.364;16.022;2022-10-31T01:06:45;12.00;;;10.47;;
7813;SDS011;3952;48.364;16.022;2022-10-31T01:09:12;12.07;;;10.63;;
7813;SDS011;3952;48.364;16.022;2022-10-31T01:11:40;10.83;;;9.83;;
7813;SDS011;3952;48.364;16.022;2022-10-31T01:14:08;12.57;;;10.53;;
7813;SDS011;3952;48.364;16.022;2022-10-31T01:16:36;11.77;;;10.77;;
7813;SDS011;3952;48.364;16.022;2022-10-31T01:19:03;11.50;;;10.37;;
7813;SDS011;3952;48.364;16.022;2022-10-31T01:21:30;11.93;;;10.80;;
7813;SDS011;3952;48.364;16.022;2022-10-31T01:23:57;11.53;;;10.53;;
7813;SDS011;3952;48.364;16.022;2022-10-31T01:26:28;12.03;;;10.93;;
7813;SDS011;3952;48.364;16.022;2022-10-31T01:28:58;12.10;;;10.87;;
7813;SDS011;3952;48.364;16.022;2022-10-31T01:31:28;11.57;;;10.50;;
7813;SDS011;3952;48.364;16.022;2022-10-31T01:33:56;12.67;;;11.37;;
7813;SDS011;3952;48.364;16.022;2022-10-31T01:36:24;12.43;;;10.53;;
7813;SDS011;3952;48.364;16.022;2022-10-31T01:38:55;11.83;;;10.67;;
7813;SDS011;3952;48.364;16.022;2022-10-31T01:41:25;11.90;;;10.80;;
7813;SDS011;3952;48.364;16.022;2022-10-31T01:43:55;11.90;;;10.70;;
7813;SDS011;3952;48.364;16.022;2022-10-31T01:46:27;12.17;;;10.97;;
7813;SDS011;3952;48.364;16.022;2022-10-31T01:48:59;11.67;;;10.57;;
7813;SDS011;3952;48.364;16.022;2022-10-31T01:51:31;13.53;;;11.50;;
7813;SDS011;3952;48.364;16.022;2022-10-31T01:54:01;13.57;;;10.70;;
7813;SDS011;3952;48.364;16.022;2022-10-31T01:56:32;13.20;;;11.00;;
7813;SDS011;3952;48.364;16.022;2022-10-31T01:59:04;18.07;;;10.90;;
7813;SDS011;3952;48.364;16.022;2022-10-31T02:01:34;11.17;;;10.00;;
7813;SDS011;3952;48.364;16.022;2022-10-31T02:04:02;12.07;;;10.80;;
7813;SDS011;3952;48.364;16.022;2022-10-31T02:06:32;12.03;;;10.80;;
7813;SDS011;3952;48.364;16.022;2022-10-31T02:09:05;12.27;;;11.00;;
7813;SDS011;3952;48.364;16.022;2022-10-31T02:11:33;11.83;;;10.50;;
7813;SDS011;3952;48.364;16.022;2022-10-31T02:14:03;11.40;;;10.43;;
7813;SDS011;3952;48.364;16.022;2022-10-31T02:16:31;10.77;;;9.77;;
7813;SDS011;3952;48.364;16.022;2022-10-31T02:18:58;11.80;;;10.60;;
7813;SDS011;3952;48.364;16.022;2022-10-31T02:21:27;11.63;;;10.43;;
7813;SDS011;3952;48.364;16.022;2022-10-31T02:27:24;11.73;;;9.90;;
7813;SDS011;3952;48.364;16.022;2022-10-31T02:30:13;10.27;;;9.47;;
7813;SDS011;3952;48.364;16.022;2022-10-31T02:32:52;10.27;;;9.47;;
7813;SDS011;3952;48.364;16.022;2022-10-31T02:35:39;11.90;;;9.73;;
7813;SDS011;3952;48.364;16.022;2022-10-31T02:38:18;9.63;;;8.83;;
7813;SDS011;3952;48.364;16.022;2022-10-31T02:40:53;9.93;;;9.13;;
7813;SDS011;3952;48.364;16.022;2022-10-31T02:43:26;10.00;;;9.03;;
7813;SDS011;3952;48.364;16.022;2022-10-31T02:46:00;10.17;;;9.30;;
7813;SDS011;3952;48.364;16.022;2022-10-31T02:48:33;10.27;;;9.27;;
7813;SDS011;3952;48.364;16.022;2022-10-31T02:51:04;14.70;;;9.37;;
7813;SDS011;3952;48.364;16.022;2022-10-31T02:53:32;8.60;;;7.97;;
7813;SDS011;3952;48.364;16.022;2022-10-31T02:56:02;7.97;;;7.47;;
7813;SDS011;3952;48.364;16.022;2022-10-31T02:58:34;7.90;;;7.20;;
7813;SDS011;3952;48.364;16.022;2022-10-31T03:04:07;7.60;;;7.00;;
7813;SDS011;3952;48.364;16.022;2022-10-31T03:06:49;9.17;;;7.03;;
7813;SDS011;3952;48.364;16.022;2022-10-31T03:09:24;8.37;;;7.63;;
7813;SDS011;3952;48.364;16.022;2022-10-31T03:12:00;12.03;;;10.83;;
7813;SDS011;3952;48.364;16.022;2022-10-31T03:14:36;14.83;;;10.40;;
7813;SDS011;3952;48.364;16.022;2022-10-31T03:17:08;16.20;;;12.93;;
7813;SDS011;3952;48.364;16.022;2022-10-31T03:19:42;23.30;;;14.43;;
7813;SDS011;3952;48.364;16.022;2022-10-31T03:22:15;16.40;;;14.00;;
7813;SDS011;3952;48.364;16.022;2022-10-31T03:24:44;17.50;;;13.50;;
7813;SDS011;3952;48.364;16.022;2022-10-31T03:27:14;21.63;;;14.73;;
7813;SDS011;3952;48.364;16.022;2022-10-31T03:29:45;23.30;;;14.50;;
7813;SDS011;3952;48.364;16.022;2022-10-31T03:32:16;28.80;;;15.77;;
7813;SDS011;3952;48.364;16.022;2022-10-31T03:34:48;26.53;;;16.03;;
7813;SDS011;3952;48.364;16.022;2022-10-31T03:37:19;23.37;;;15.27;;
7813;SDS011;3952;48.364;16.022;2022-10-31T03:39:48;25.17;;;15.20;;
7813;SDS011;3952;48.364;16.022;2022-10-31T03:42:17;19.53;;;14.00;;
7813;SDS011;3952;48.364;16.022;2022-10-31T03:44:49;18.73;;;12.77;;
7813;SDS011;3952;48.364;16.022;2022-10-31T03:47:20;18.10;;;13.43;;
7813;SDS011;3952;48.364;16.022;2022-10-31T03:49:49;17.37;;;12.77;;
7813;SDS011;3952;48.364;16.022;2022-10-31T03:52:19;20.17;;;12.53;;
7813;SDS011;3952;48.364;16.022;2022-10-31T03:54:53;17.73;;;13.10;;
7813;SDS011;3952;48.364;16.022;2022-10-31T03:57:24;16.63;;;12.90;;
7813;SDS011;3952;48.364;16.022;2022-10-31T03:59:58;20.77;;;13.13;;
7813;SDS011;3952;48.364;16.022;2022-10-31T04:02:28;14.30;;;12.37;;
7813;SDS011;3952;48.364;16.022;2022-10-31T04:05:00;16.23;;;12.77;;
7813;SDS011;3952;48.364;16.022;2022-10-31T04:07:29;23.57;;;14.67;;
7813;SDS011;3952;48.364;16.022;2022-10-31T04:10:00;21.40;;;14.43;;
7813;SDS011;3952;48.364;16.022;2022-10-31T04:12:29;15.20;;;10.97;;
7813;SDS011;3952;48.364;16.022;2022-10-31T04:14:58;19.27;;;12.10;;
7813;SDS011;3952;48.364;16.022;2022-10-31T04:17:27;25.03;;;15.87;;
7813;SDS011;3952;48.364;16.022;2022-10-31T05:20:31;9.17;;;8.47;;
7813;SDS011;3952;48.364;16.022;2022-10-31T05:22:58;10.30;;;9.27;;
7813;SDS011;3952;48.364;16.022;2022-10-31T05:25:26;10.67;;;9.13;;
7813;SDS011;3952;48.364;16.022;2022-10-31T05:27:54;9.57;;;8.87;;
7813;SDS011;3952;48.364;16.022;2022-10-31T05:30:23;11.40;;;9.50;;
7813;SDS011;3952;48.364;16.022;2022-10-31T05:32:52;10.13;;;9.23;;
7813;SDS011;3952;48.364;16.022;2022-10-31T05:35:21;9.90;;;8.90;;
7813;SDS011;3952;48.364;16.022;2022-10-31T05:37:50;9.17;;;8.37;;
7813;SDS011;3952;48.364;16.022;2022-10-31T05:40:18;9.43;;;8.53;;
7813;SDS011;3952;48.364;16.022;2022-10-31T05:42:46;9.30;;;8.60;;
7813;SDS011;3952;48.364;16.022;2022-10-31T05:45:14;8.20;;;7.60;;
7813;SDS011;3952;48.364;16.022;2022-10-31T05:47:49;8.97;;;8.27;;
7813;SDS011;3952;48.364;16.022;2022-10-31T05:50:17;8.80;;;7.93;;
7813;SDS011;3952;48.364;16.022;2022-10-31T05:52:45;8.57;;;7.87;;
7813;SDS011;3952;48.364;16.022;2022-10-31T05:55:14;8.83;;;8.13;;
7813;SDS011;3952;48.364;16.022;2022-10-31T05:57:41;9.30;;;8.50;;
7813;SDS011;3952;48.364;16.022;2022-10-31T06:00:09;8.80;;;7.90;;
7813;SDS011;3952;48.364;16.022;2022-10-31T06:02:36;9.93;;;9.03;;
7813;SDS011;3952;48.364;16.022;2022-10-31T06:05:04;10.53;;;9.43;;
7813;SDS011;3952;48.364;16.022;2022-10-31T06:07:32;10.47;;;9.17;;
7813;SDS011;3952;48.364;16.022;2022-10-31T06:10:00;10.10;;;9.00;;
7813;SDS011;3952;48.364;16.022;2022-10-31T06:12:31;9.70;;;8.23;;
7813;SDS011;3952;48.364;16.022;2022-10-31T06:15:03;9.77;;;8.87;;
7813;SDS011;3952;48.364;16.022;2022-10-31T06:17:32;12.60;;;9.67;;
7813;SDS011;3952;48.364;16.022;2022-10-31T06:20:00;9.00;;;8.13;;
7813;SDS011;3952;48.364;16.022;2022-10-31T06:22:28;9.50;;;8.60;;
7813;SDS011;3952;48.364;16.022;2022-10-31T06:24:55;8.77;;;8.00;;
7813;SDS011;3952;48.364;16.022;2022-10-31T06:27:22;8.93;;;8.13;;
7813;SDS011;3952;48.364;16.022;2022-10-31T06:29:51;9.17;;;8.20;;
7813;SDS011;3952;48.364;16.022;2022-10-31T06:32:18;9.80;;;8.00;;
7813;SDS011;3952;48.364;16.022;2022-10-31T06:34:46;17.30;;;8.93;;
7813;SDS011;3952;48.364;16.022;2022-10-31T06:37:14;9.23;;;8.33;;
7813;SDS011;3952;48.364;16.022;2022-10-31T06:39:42;9.67;;;8.67;;
7813;SDS011;3952;48.364;16.022;2022-10-31T06:42:09;10.23;;;9.17;;
7813;SDS011;3952;48.364;16.022;2022-10-31T06:44:36;10.33;;;9.20;;
7813;SDS011;3952;48.364;16.022;2022-10-31T06:47:05;11.37;;;10.17;;
7813;SDS011;3952;48.364;16.022;2022-10-31T06:49:32;10.60;;;9.53;;
7813;SDS011;3952;48.364;16.022;2022-10-31T06:52:00;9.40;;;8.50;;
7813;SDS011;3952;48.364;16.022;2022-10-31T06:54:27;10.53;;;9.53;;
7813;SDS011;3952;48.364;16.022;2022-10-31T06:56:54;9.67;;;8.80;;
7813;SDS011;3952;48.364;16.022;2022-10-31T06:59:21;11.97;;;9.80;;
7813;SDS011;3952;48.364;16.022;2022-10-31T07:01:49;10.37;;;9.37;;
7813;SDS011;3952;48.364;16.022;2022-10-31T07:04:18;10.60;;;9.17;;
7813;SDS011;3952;48.364;16.022;2022-10-31T07:06:45;11.20;;;10.10;;
7813;SDS011;3952;48.364;16.022;2022-10-31T07:09:12;10.33;;;9.33;;
7813;SDS011;3952;48.364;16.022;2022-10-31T07:11:39;10.80;;;9.57;;
7813;SDS011;3952;48.364;16.022;2022-10-31T07:14:07;11.77;;;9.37;;
7813;SDS011;3952;48.364;16.022;2022-10-31T07:16:34;10.10;;;9.13;;
7813;SDS011;3952;48.364;16.022;2022-10-31T07:19:01;10.33;;;8.93;;
7813;SDS011;3952;48.364;16.022;2022-10-31T07:21:30;10.07;;;9.07;;
7813;SDS011;3952;48.364;16.022;2022-10-31T07:23:57;10.33;;;9.23;;
7813;SDS011;3952;48.364;16.022;2022-10-31T07:26:24;10.13;;;9.17;;
7813;SDS011;3952;48.364;16.022;2022-10-31T07:28:53;11.37;;;9.60;;
7813;SDS011;3952;48.364;16.022;2022-10-31T07:31:20;9.67;;;8.67;;
7813;SDS011;3952;48.364;16.022;2022-10-31T07:33:47;9.77;;;8.67;;
7813;SDS011;3952;48.364;16.022;2022-10-31T07:36:15;10.63;;;9.27;;
7813;SDS011;3952;48.364;16.022;2022-10-31T07:38:44;11.77;;;9.43;;
7813;SDS011;3952;48.364;16.022;2022-10-31T07:41:11;9.83;;;8.83;;
7813;SDS011;3952;48.364;16.022;2022-10-31T07:43:38;10.50;;;9.30;;
7813;SDS011;3952;48.364;16.022;2022-10-31T07:46:06;10.73;;;9.63;;
7813;SDS011;3952;48.364;16.022;2022-10-31T07:48:33;9.00;;;8.27;;
7813;SDS011;3952;48.364;16.022;2022-10-31T07:51:00;12.43;;;8.90;;
7813;SDS011;3952;48.364;16.022;2022-10-31T07:53:27;10.23;;;9.17;;
7813;SDS011;3952;48.364;16.022;2022-10-31T07:55:56;10.77;;;9.70;;
7813;SDS011;3952;48.364;16.022;2022-10-31T07:58:23;9.43;;;8.57;;
7813;SDS011;3952;48.364;16.022;2022-10-31T08:00:51;11.90;;;8.77;;
7813;SDS011;3952;48.364;16.022;2022-10-31T08:03:18;11.57;;;8.30;;
7813;SDS011;3952;48.364;16.022;2022-10-31T08:05:45;8.93;;;8.17;;
7813;SDS011;3952;48.364;16.022;2022-10-31T08:08:13;9.07;;;8.20;;
7813;SDS011;3952;48.364;16.022;2022-10-31T08:10:41;10.20;;;8.27;;
7813;SDS011;3952;48.364;16.022;2022-10-31T08:13:10;8.90;;;8.10;;
7813;SDS011;3952;48.364;16.022;2022-10-31T08:15:39;8.73;;;7.97;;
7813;SDS011;3952;48.364;16.022;2022-10-31T08:18:10;8.97;;;8.07;;
7813;SDS011;3952;48.364;16.022;2022-10-31T08:20:38;8.83;;;7.93;;
7813;SDS011;3952;48.364;16.022;2022-10-31T08:23:06;9.23;;;8.43;;
7813;SDS011;3952;48.364;16.022;2022-10-31T08:25:34;9.90;;;8.40;;
7813;SDS011;3952;48.364;16.022;2022-10-31T08:28:02;8.23;;;7.40;;
7813;SDS011;3952;48.364;16.022;2022-10-31T08:30:32;9.73;;;8.93;;
7813;SDS011;3952;48.364;16.022;2022-10-31T08:33:01;8.23;;;7.50;;
7813;SDS011;3952;48.364;16.022;2022-10-31T08:35:30;9.93;;;8.80;;
7813;SDS011;3952;48.364;16.022;2022-10-31T08:37:58;9.13;;;8.17;;
7813;SDS011;3952;48.364;16.022;2022-10-31T08:40:26;9.30;;;8.43;;
7813;SDS011;3952;48.364;16.022;2022-10-31T08:42:57;12.43;;;8.30;;
7813;SDS011;3952;48.364;16.022;2022-10-31T08:45:26;9.73;;;8.83;;
7813;SDS011;3952;48.364;16.022;2022-10-31T08:47:58;8.83;;;8.00;;
7813;SDS011;3952;48.364;16.022;2022-10-31T08:50:26;12.70;;;8.90;;
7813;SDS011;3952;48.364;16.022;2022-10-31T08:52:59;10.30;;;7.70;;
7813;SDS011;3952;48.364;16.022;2022-10-31T08:55:27;9.97;;;8.47;;
7813;SDS011;3952;48.364;16.022;2022-10-31T08:57:54;8.47;;;7.50;;
7813;SDS011;3952;48.364;16.022;2022-10-31T09:00:22;8.93;;;8.03;;
7813;SDS011;3952;48.364;16.022;2022-10-31T09:02:54;9.07;;;8.17;;
7813;SDS011;3952;48.364;16.022;2022-10-31T09:05:24;8.20;;;7.60;;
7813;SDS011;3952;48.364;16.022;2022-10-31T09:07:54;9.07;;;8.40;;
7813;SDS011;3952;48.364;16.022;2022-10-31T09:10:22;8.33;;;7.53;;
7813;SDS011;3952;48.364;16.022;2022-10-31T09:12:54;9.90;;;9.00;;
7813;SDS011;3952;48.364;16.022;2022-10-31T09:15:22;12.27;;;8.77;;
7813;SDS011;3952;48.364;16.022;2022-10-31T09:17:49;8.07;;;7.37;;
7813;SDS011;3952;48.364;16.022;2022-10-31T09:20:17;9.70;;;8.73;;
7813;SDS011;3952;48.364;16.022;2022-10-31T09:22:46;9.40;;;8.60;;
7813;SDS011;3952;48.364;16.022;2022-10-31T09:25:13;8.87;;;8.10;;
7813;SDS011;3952;48.364;16.022;2022-10-31T09:27:40;10.07;;;9.03;;
7813;SDS011;3952;48.364;16.022;2022-10-31T09:30:08;10.77;;;9.70;;
7813;SDS011;3952;48.364;16.022;2022-10-31T09:32:36;10.23;;;9.30;;
7813;SDS011;3952;48.364;16.022;2022-10-31T09:35:03;15.57;;;12.03;;
7813;SDS011;3952;48.364;16.022;2022-10-31T09:37:30;11.80;;;10.60;;
7813;SDS011;3952;48.364;16.022;2022-10-31T09:39:59;13.77;;;12.23;;
7813;SDS011;3952;48.364;16.022;2022-10-31T09:42:39;12.70;;;10.50;;
7813;SDS011;3952;48.364;16.022;2022-10-31T09:45:23;12.83;;;11.50;;
7813;SDS011;3952;48.364;16.022;2022-10-31T09:48:09;15.17;;;12.73;;
7813;SDS011;3952;48.364;16.022;2022-10-31T09:50:46;12.57;;;11.13;;
7813;SDS011;3952;48.364;16.022;2022-10-31T09:53:19;10.53;;;9.40;;
7813;SDS011;3952;48.364;16.022;2022-10-31T09:55:53;10.80;;;9.70;;
7813;SDS011;3952;48.364;16.022;2022-10-31T09:58:23;12.67;;;9.47;;
7813;SDS011;3952;48.364;16.022;2022-10-31T10:00:51;12.50;;;10.53;;
7813;SDS011;3952;48.364;16.022;2022-10-31T10:03:24;10.37;;;9.47;;
7813;SDS011;3952;48.364;16.022;2022-10-31T10:05:59;10.50;;;9.60;;
7813;SDS011;3952;48.364;16.022;2022-10-31T10:08:33;10.00;;;9.10;;
7813;SDS011;3952;48.364;16.022;2022-10-31T10:11:06;10.47;;;9.40;;
7813;SDS011;3952;48.364;16.022;2022-10-31T10:13:47;10.63;;;9.73;;
7813;SDS011;3952;48.364;16.022;2022-10-31T10:16:27;10.23;;;9.23;;
7813;SDS011;3952;48.364;16.022;2022-10-31T10:19:13;14.83;;;10.00;;
7813;SDS011;3952;48.364;16.022;2022-10-31T10:21:53;9.70;;;8.87;;
7813;SDS011;3952;48.364;16.022;2022-10-31T10:24:30;10.53;;;9.70;;
7813;SDS011;3952;48.364;16.022;2022-10-31T10:27:18;11.03;;;10.13;;
7813;SDS011;3952;48.364;16.022;2022-10-31T10:29:53;13.00;;;9.43;;
7813;SDS011;3952;48.364;16.022;2022-10-31T10:32:27;11.10;;;10.10;;
7813;SDS011;3952;48.364;16.022;2022-10-31T10:34:57;11.70;;;10.07;;
7813;SDS011;3952;48.364;16.022;2022-10-31T10:37:29;11.30;;;10.20;;
7813;SDS011;3952;48.364;16.022;2022-10-31T10:40:02;11.67;;;10.57;;
7813;SDS011;3952;48.364;16.022;2022-10-31T10:42:36;11.50;;;10.37;;
7813;SDS011;3952;48.364;16.022;2022-10-31T10:45:21;11.83;;;10.73;;
7813;SDS011;3952;48.364;16.022;2022-10-31T10:48:07;12.27;;;11.00;;
7813;SDS011;3952;48.364;16.022;2022-10-31T10:50:41;10.37;;;9.57;;
7813;SDS011;3952;48.364;16.022;2022-10-31T10:53:18;12.07;;;10.87;;
7813;SDS011;3952;48.364;16.022;2022-10-31T10:56:02;12.37;;;11.13;;
7813;SDS011;3952;48.364;16.022;2022-10-31T10:58:39;11.67;;;10.67;;
7813;SDS011;3952;48.364;16.022;2022-10-31T11:01:11;13.60;;;11.57;;
7813;SDS011;3952;48.364;16.022;2022-10-31T11:03:40;12.10;;;10.93;;
7813;SDS011;3952;48.364;16.022;2022-10-31T11:06:16;11.60;;;10.67;;
7813;SDS011;3952;48.364;16.022;2022-10-31T11:08:50;11.23;;;10.33;;
7813;SDS011;3952;48.364;16.022;2022-10-31T11:11:25;12.90;;;11.73;;
7813;SDS011;3952;48.364;16.022;2022-10-31T11:13:57;15.53;;;12.53;;
7813;SDS011;3952;48.364;16.022;2022-10-31T11:16:27;12.93;;;11.77;;
7813;SDS011;3952;48.364;16.022;2022-10-31T11:19:05;11.87;;;10.73;;
7813;SDS011;3952;48.364;16.022;2022-10-31T11:21:34;11.73;;;10.63;;
7813;SDS011;3952;48.364;16.022;2022-10-31T11:24:02;11.73;;;10.20;;
7813;SDS011;3952;48.364;16.022;2022-10-31T11:26:30;14.13;;;10.80;;
7813;SDS011;3952;48.364;16.022;2022-10-31T11:29:01;11.37;;;10.37;;
7813;SDS011;3952;48.364;16.022;2022-10-31T11:31:29;13.00;;;11.67;;
7813;SDS011;3952;48.364;16.022;2022-10-31T11:33:58;12.63;;;11.50;;
7813;SDS011;3952;48.364;16.022;2022-10-31T11:36:29;12.33;;;11.13;;
7813;SDS011;3952;48.364;16.022;2022-10-31T11:38:57;12.83;;;11.73;;
7813;SDS011;3952;48.364;16.022;2022-10-31T11:41:28;11.83;;;10.83;;
7813;SDS011;3952;48.364;16.022;2022-10-31T11:43:59;12.23;;;11.03;;
7813;SDS011;3952;48.364;16.022;2022-10-31T11:46:30;12.83;;;11.43;;
7813;SDS011;3952;48.364;16.022;2022-10-31T11:49:00;11.80;;;10.80;;
7813;SDS011;3952;48.364;16.022;2022-10-31T11:51:30;12.17;;;11.13;;
7813;SDS011;3952;48.364;16.022;2022-10-31T11:53:59;14.00;;;11.87;;
7813;SDS011;3952;48.364;16.022;2022-10-31T11:56:37;14.20;;;12.80;;
7813;SDS011;3952;48.364;16.022;2022-10-31T11:59:14;13.40;;;11.97;;
7813;SDS011;3952;48.364;16.022;2022-10-31T12:01:50;14.53;;;10.87;;
7813;SDS011;3952;48.364;16.022;2022-10-31T12:04:18;13.97;;;12.60;;
7813;SDS011;3952;48.364;16.022;2022-10-31T12:06:53;12.03;;;10.83;;
7813;SDS011;3952;48.364;16.022;2022-10-31T12:09:22;12.93;;;11.87;;
7813;SDS011;3952;48.364;16.022;2022-10-31T12:11:56;13.43;;;12.23;;
7813;SDS011;3952;48.364;16.022;2022-10-31T12:14:38;15.90;;;12.90;;
7813;SDS011;3952;48.364;16.022;2022-10-31T12:17:14;15.53;;;12.30;;
7813;SDS011;3952;48.364;16.022;2022-10-31T12:19:48;13.43;;;12.17;;
7813;SDS011;3952;48.364;16.022;2022-10-31T12:22:28;22.33;;;12.07;;
7813;SDS011;3952;48.364;16.022;2022-10-31T12:25:11;13.77;;;12.23;;
7813;SDS011;3952;48.364;16.022;2022-10-31T12:27:54;13.97;;;12.47;;
7813;SDS011;3952;48.364;16.022;2022-10-31T12:30:33;13.90;;;12.57;;
7813;SDS011;3952;48.364;16.022;2022-10-31T12:33:23;13.17;;;12.03;;
7813;SDS011;3952;48.364;16.022;2022-10-31T12:36:07;15.83;;;11.90;;
7813;SDS011;3952;48.364;16.022;2022-10-31T12:38:54;15.83;;;11.83;;
7813;SDS011;3952;48.364;16.022;2022-10-31T12:41:45;13.20;;;11.77;;
7813;SDS011;3952;48.364;16.022;2022-10-31T12:47:23;13.97;;;12.83;;
7813;SDS011;3952;48.364;16.022;2022-10-31T12:50:08;15.10;;;12.47;;
7813;SDS011;3952;48.364;16.022;2022-10-31T12:52:50;14.00;;;12.50;;
7813;SDS011;3952;48.364;16.022;2022-10-31T12:55:31;15.60;;;12.03;;
7813;SDS011;3952;48.364;16.022;2022-10-31T12:58:07;14.37;;;12.90;;
7813;SDS011;3952;48.364;16.022;2022-10-31T13:00:41;16.30;;;13.33;;
7813;SDS011;3952;48.364;16.022;2022-10-31T13:03:17;19.93;;;14.47;;
7813;SDS011;3952;48.364;16.022;2022-10-31T13:05:54;13.80;;;12.50;;
7813;SDS011;3952;48.364;16.022;2022-10-31T13:08:26;13.57;;;12.30;;
7813;SDS011;3952;48.364;16.022;2022-10-31T13:11:02;14.30;;;12.93;;
7813;SDS011;3952;48.364;16.022;2022-10-31T13:13:35;14.63;;;13.23;;
7813;SDS011;3952;48.364;16.022;2022-10-31T13:16:09;14.23;;;12.77;;
7813;SDS011;3952;48.364;16.022;2022-10-31T13:18:42;14.10;;;12.80;;
7813;SDS011;3952;48.364;16.022;2022-10-31T13:21:16;19.17;;;13.97;;
7813;SDS011;3952;48.364;16.022;2022-10-31T13:23:48;14.97;;;13.50;;
7813;SDS011;3952;48.364;16.022;2022-10-31T13:26:20;15.20;;;13.33;;
7813;SDS011;3952;48.364;16.022;2022-10-31T13:28:54;17.43;;;14.90;;
7813;SDS011;3952;48.364;16.022;2022-10-31T13:31:28;19.70;;;14.63;;
7813;SDS011;3952;48.364;16.022;2022-10-31T13:33:57;18.50;;;14.80;;
7813;SDS011;3952;48.364;16.022;2022-10-31T13:36:30;18.17;;;14.67;;
7813;SDS011;3952;48.364;16.022;2022-10-31T13:39:03;20.43;;;15.13;;
7813;SDS011;3952;48.364;16.022;2022-10-31T13:41:42;17.17;;;15.37;;
7813;SDS011;3952;48.364;16.022;2022-10-31T13:44:13;21.70;;;15.23;;
7813;SDS011;3952;48.364;16.022;2022-10-31T13:46:44;20.93;;;15.70;;
7813;SDS011;3952;48.364;16.022;2022-10-31T13:49:35;22.30;;;15.83;;
7813;SDS011;3952;48.364;16.022;2022-10-31T13:52:14;30.70;;;16.83;;
7813;SDS011;3952;48.364;16.022;2022-10-31T13:54:43;21.80;;;16.47;;
7813;SDS011;3952;48.364;16.022;2022-10-31T13:57:22;29.20;;;18.27;;
7813;SDS011;3952;48.364;16.022;2022-10-31T13:59:58;35.63;;;21.70;;
7813;SDS011;3952;48.364;16.022;2022-10-31T14:02:28;34.70;;;22.13;;
7813;SDS011;3952;48.364;16.022;2022-10-31T14:05:00;26.23;;;18.37;;
7813;SDS011;3952;48.364;16.022;2022-10-31T14:07:29;30.10;;;19.67;;
7813;SDS011;3952;48.364;16.022;2022-10-31T14:09:59;42.80;;;24.83;;
7813;SDS011;3952;48.364;16.022;2022-10-31T14:12:30;57.03;;;30.87;;
7813;SDS011;3952;48.364;16.022;2022-10-31T14:15:02;35.60;;;24.20;;
7813;SDS011;3952;48.364;16.022;2022-10-31T14:17:33;36.80;;;21.57;;
7813;SDS011;3952;48.364;16.022;2022-10-31T14:20:26;33.63;;;20.53;;
7813;SDS011;3952;48.364;16.022;2022-10-31T14:23:10;34.90;;;22.30;;
7813;SDS011;3952;48.364;16.022;2022-10-31T14:25:38;30.97;;;21.73;;
7813;SDS011;3952;48.364;16.022;2022-10-31T14:28:18;42.77;;;22.13;;
7813;SDS011;3952;48.364;16.022;2022-10-31T14:30:51;38.87;;;22.63;;
7813;SDS011;3952;48.364;16.022;2022-10-31T14:33:19;35.27;;;22.57;;
7813;SDS011;3952;48.364;16.022;2022-10-31T14:35:52;41.03;;;23.90;;
7813;SDS011;3952;48.364;16.022;2022-10-31T14:38:48;40.10;;;24.33;;
7813;SDS011;3952;48.364;16.022;2022-10-31T14:41:34;42.20;;;26.30;;
7813;SDS011;3952;48.364;16.022;2022-10-31T14:44:26;48.53;;;29.10;;
7813;SDS011;3952;48.364;16.022;2022-10-31T14:47:10;44.27;;;26.37;;
7813;SDS011;3952;48.364;16.022;2022-10-31T14:49:50;50.33;;;27.13;;
7813;SDS011;3952;48.364;16.022;2022-10-31T14:52:41;52.10;;;29.73;;
7813;SDS011;3952;48.364;16.022;2022-10-31T14:55:13;52.23;;;27.13;;
7813;SDS011;3952;48.364;16.022;2022-10-31T14:57:47;49.07;;;27.00;;
7813;SDS011;3952;48.364;16.022;2022-10-31T15:00:18;49.70;;;27.90;;
7813;SDS011;3952;48.364;16.022;2022-10-31T15:02:49;56.33;;;30.03;;
7813;SDS011;3952;48.364;16.022;2022-10-31T15:05:26;55.50;;;29.37;;
7813;SDS011;3952;48.364;16.022;2022-10-31T15:07:56;56.23;;;28.77;;
7813;SDS011;3952;48.364;16.022;2022-10-31T15:10:25;54.23;;;27.70;;
7813;SDS011;3952;48.364;16.022;2022-10-31T15:12:54;55.67;;;28.47;;
7813;SDS011;3952;48.364;16.022;2022-10-31T15:15:23;54.50;;;29.83;;
7813;SDS011;3952;48.364;16.022;2022-10-31T15:17:52;56.23;;;30.00;;
7813;SDS011;3952;48.364;16.022;2022-10-31T15:20:23;58.13;;;28.27;;
7813;SDS011;3952;48.364;16.022;2022-10-31T15:22:53;57.83;;;29.23;;
7813;SDS011;3952;48.364;16.022;2022-10-31T15:25:30;57.33;;;29.67;;
7813;SDS011;3952;48.364;16.022;2022-10-31T15:28:00;53.63;;;28.73;;
7813;SDS011;3952;48.364;16.022;2022-10-31T15:30:38;59.53;;;31.97;;
7813;SDS011;3952;48.364;16.022;2022-10-31T15:33:15;61.70;;;34.20;;
7813;SDS011;3952;48.364;16.022;2022-10-31T15:35:53;65.97;;;33.40;;
7813;SDS011;3952;48.364;16.022;2022-10-31T15:38:23;58.03;;;29.87;;
7813;SDS011;3952;48.364;16.022;2022-10-31T15:40:52;58.17;;;30.80;;
7813;SDS011;3952;48.364;16.022;2022-10-31T15:43:21;58.33;;;33.83;;
7813;SDS011;3952;48.364;16.022;2022-10-31T15:45:49;55.33;;;30.77;;
7813;SDS011;3952;48.364;16.022;2022-10-31T15:48:17;64.47;;;30.23;;
7813;SDS011;3952;48.364;16.022;2022-10-31T15:50:49;61.70;;;30.23;;
7813;SDS011;3952;48.364;16.022;2022-10-31T15:53:19;67.33;;;30.70;;
7813;SDS011;3952;48.364;16.022;2022-10-31T15:55:53;60.47;;;31.07;;
7813;SDS011;3952;48.364;16.022;2022-10-31T15:58:22;70.77;;;32.27;;
7813;SDS011;3952;48.364;16.022;2022-10-31T16:00:57;60.47;;;32.20;;
7813;SDS011;3952;48.364;16.022;2022-10-31T16:03:26;68.60;;;33.00;;
7813;SDS011;3952;48.364;16.022;2022-10-31T16:05:56;70.50;;;34.60;;
7813;SDS011;3952;48.364;16.022;2022-10-31T16:08:32;83.13;;;36.80;;
7813;SDS011;3952;48.364;16.022;2022-10-31T16:11:13;74.27;;;34.13;;
7813;SDS011;3952;48.364;16.022;2022-10-31T16:13:52;86.83;;;38.00;;
7813;SDS011;3952;48.364;16.022;2022-10-31T16:16:21;81.43;;;35.20;;
7813;SDS011;3952;48.364;16.022;2022-10-31T16:18:49;74.33;;;34.97;;